sensor_id;sensor_type;location;lat;lon;timestamp;temperature;humidity
49829;DHT22;35723;51.194;5.112;2022-09-27T00:00:59;23.30;86.50
49829;DHT22;35723;51.194;5.112;2022-09-27T00:03:24;23.40;86.50
49829;DHT22;35723;51.194;5.112;2022-09-27T00:06:05;23.30;86.50
49829;DHT22;35723;51.194;5.112;2022-09-27T00:08:32;23.40;86.40
49829;DHT22;35723;51.194;5.112;2022-09-27T00:11:03;23.30;86.40
49829;DHT22;35723;51.194;5.112;2022-09-27T00:13:29;23.30;86.40
49829;DHT22;35723;51.194;5.112;2022-09-27T00:15:56;23.30;86.50
49829;DHT22;35723;51.194;5.112;2022-09-27T00:18:22;23.30;86.40
49829;DHT22;35723;51.194;5.112;2022-09-27T00:20:48;23.30;86.40
49829;DHT22;35723;51.194;5.112;2022-09-27T00:23:13;23.30;86.40
49829;DHT22;35723;51.194;5.112;2022-09-27T00:25:39;23.30;86.40
49829;DHT22;35723;51.194;5.112;2022-09-27T00:28:05;23.30;86.40
49829;DHT22;35723;51.194;5.112;2022-09-27T00:30:31;23.30;86.30
49829;DHT22;35723;51.194;5.112;2022-09-27T00:32:56;23.30;86.30
49829;DHT22;35723;51.194;5.112;2022-09-27T00:35:22;23.40;86.40
49829;DHT22;35723;51.194;5.112;2022-09-27T00:37:47;23.30;86.30
49829;DHT22;35723;51.194;5.112;2022-09-27T00:40:14;23.30;86.20
49829;DHT22;35723;51.194;5.112;2022-09-27T00:42:40;23.30;86.20
49829;DHT22;35723;51.194;5.112;2022-09-27T00:45:13;23.30;86.20
49829;DHT22;35723;51.194;5.112;2022-09-27T00:47:55;23.30;86.20
49829;DHT22;35723;51.194;5.112;2022-09-27T00:53:09;23.30;86.10
49829;DHT22;35723;51.194;5.112;2022-09-27T00:55:45;23.30;86.10
49829;DHT22;35723;51.194;5.112;2022-09-27T00:58:15;23.30;86.10
49829;DHT22;35723;51.194;5.112;2022-09-27T01:00:45;23.30;86.20
49829;DHT22;35723;51.194;5.112;2022-09-27T01:03:23;23.30;86.10
49829;DHT22;35723;51.194;5.112;2022-09-27T01:05:51;23.30;86.10
49829;DHT22;35723;51.194;5.112;2022-09-27T01:08:17;23.30;86.10
49829;DHT22;35723;51.194;5.112;2022-09-27T01:11:03;23.30;86.10
49829;DHT22;35723;51.194;5.112;2022-09-27T01:24:58;23.30;85.80
49829;DHT22;35723;51.194;5.112;2022-09-27T01:27:57;23.20;85.90
49829;DHT22;35723;51.194;5.112;2022-09-27T01:30:30;23.20;85.80
49829;DHT22;35723;51.194;5.112;2022-09-27T01:35:37;23.20;85.80
49829;DHT22;35723;51.194;5.112;2022-09-27T01:38:21;23.30;85.90
49829;DHT22;35723;51.194;5.112;2022-09-27T01:41:38;23.30;85.80
49829;DHT22;35723;51.194;5.112;2022-09-27T01:44:12;23.20;85.80
49829;DHT22;35723;51.194;5.112;2022-09-27T01:46:45;23.20;85.90
49829;DHT22;35723;51.194;5.112;2022-09-27T01:49:16;23.20;85.90
49829;DHT22;35723;51.194;5.112;2022-09-27T01:51:49;23.20;85.90
49829;DHT22;35723;51.194;5.112;2022-09-27T01:54:22;23.20;85.80
49829;DHT22;35723;51.194;5.112;2022-09-27T01:56:52;23.20;85.80
49829;DHT22;35723;51.194;5.112;2022-09-27T01:59:21;23.20;85.80
49829;DHT22;35723;51.194;5.112;2022-09-27T02:01:49;23.20;85.80
49829;DHT22;35723;51.194;5.112;2022-09-27T02:04:25;23.20;85.70
49829;DHT22;35723;51.194;5.112;2022-09-27T02:06:57;23.20;85.70
49829;DHT22;35723;51.194;5.112;2022-09-27T02:09:37;23.20;85.70
49829;DHT22;35723;51.194;5.112;2022-09-27T02:12:07;23.30;85.70
49829;DHT22;35723;51.194;5.112;2022-09-27T02:14:49;23.20;85.70
49829;DHT22;35723;51.194;5.112;2022-09-27T02:17:38;23.20;85.70
49829;DHT22;35723;51.194;5.112;2022-09-27T02:20:32;23.20;85.70
49829;DHT22;35723;51.194;5.112;2022-09-27T02:23:14;23.20;85.50
49829;DHT22;35723;51.194;5.112;2022-09-27T02:25:47;23.20;85.60
49829;DHT22;35723;51.194;5.112;2022-09-27T02:28:34;23.20;85.60
49829;DHT22;35723;51.194;5.112;2022-09-27T02:31:03;23.20;85.50
49829;DHT22;35723;51.194;5.112;2022-09-27T02:36:08;23.20;85.50
49829;DHT22;35723;51.194;5.112;2022-09-27T02:38:34;23.20;85.50
49829;DHT22;35723;51.194;5.112;2022-09-27T02:41:00;23.20;85.40
49829;DHT22;35723;51.194;5.112;2022-09-27T02:43:29;23.20;85.40
49829;DHT22;35723;51.194;5.112;2022-09-27T02:46:21;23.20;85.30
49829;DHT22;35723;51.194;5.112;2022-09-27T02:49:30;23.20;85.20
49829;DHT22;35723;51.194;5.112;2022-09-27T02:55:18;23.20;85.20
49829;DHT22;35723;51.194;5.112;2022-09-27T03:01:11;23.10;85.30
49829;DHT22;35723;51.194;5.112;2022-09-27T03:06:06;23.10;85.20
49829;DHT22;35723;51.194;5.112;2022-09-27T03:08:32;23.20;85.10
49829;DHT22;35723;51.194;5.112;2022-09-27T03:10:58;23.10;85.20
49829;DHT22;35723;51.194;5.112;2022-09-27T03:13:23;23.10;85.30
49829;DHT22;35723;51.194;5.112;2022-09-27T03:15:49;23.10;85.20
49829;DHT22;35723;51.194;5.112;2022-09-27T03:18:15;23.10;85.20
49829;DHT22;35723;51.194;5.112;2022-09-27T03:20:40;23.10;85.10
49829;DHT22;35723;51.194;5.112;2022-09-27T03:23:06;23.10;85.10
49829;DHT22;35723;51.194;5.112;2022-09-27T03:25:32;23.10;85.00
49829;DHT22;35723;51.194;5.112;2022-09-27T03:27:57;23.10;85.00
49829;DHT22;35723;51.194;5.112;2022-09-27T03:30:23;23.10;85.00
49829;DHT22;35723;51.194;5.112;2022-09-27T03:32:48;23.10;85.00
49829;DHT22;35723;51.194;5.112;2022-09-27T03:35:14;23.10;84.90
49829;DHT22;35723;51.194;5.112;2022-09-27T03:37:40;23.10;85.00
49829;DHT22;35723;51.194;5.112;2022-09-27T03:40:07;23.10;84.90
49829;DHT22;35723;51.194;5.112;2022-09-27T03:42:32;23.10;84.80
49829;DHT22;35723;51.194;5.112;2022-09-27T03:44:58;23.10;84.80
49829;DHT22;35723;51.194;5.112;2022-09-27T03:47:24;23.10;84.80
49829;DHT22;35723;51.194;5.112;2022-09-27T03:49:49;23.10;84.80
49829;DHT22;35723;51.194;5.112;2022-09-27T03:52:15;23.10;84.70
49829;DHT22;35723;51.194;5.112;2022-09-27T03:54:43;23.10;84.70
49829;DHT22;35723;51.194;5.112;2022-09-27T03:57:09;23.10;84.60
49829;DHT22;35723;51.194;5.112;2022-09-27T03:59:34;23.10;84.60
49829;DHT22;35723;51.194;5.112;2022-09-27T04:02:00;23.10;84.60
49829;DHT22;35723;51.194;5.112;2022-09-27T04:04:26;23.10;84.60
49829;DHT22;35723;51.194;5.112;2022-09-27T04:06:51;23.10;84.60
49829;DHT22;35723;51.194;5.112;2022-09-27T04:09:17;23.10;84.50
49829;DHT22;35723;51.194;5.112;2022-09-27T04:11:43;23.10;84.50
49829;DHT22;35723;51.194;5.112;2022-09-27T04:14:08;23.10;84.50
49829;DHT22;35723;51.194;5.112;2022-09-27T04:16:38;23.10;84.40
49829;DHT22;35723;51.194;5.112;2022-09-27T04:19:05;23.10;84.50
49829;DHT22;35723;51.194;5.112;2022-09-27T04:21:32;23.10;84.40
49829;DHT22;35723;51.194;5.112;2022-09-27T04:23:57;23.10;84.30
49829;DHT22;35723;51.194;5.112;2022-09-27T04:26:23;23.10;84.30
49829;DHT22;35723;51.194;5.112;2022-09-27T04:28:50;23.10;84.30
49829;DHT22;35723;51.194;5.112;2022-09-27T04:31:17;23.10;84.20
49829;DHT22;35723;51.194;5.112;2022-09-27T04:33:43;23.10;84.20
49829;DHT22;35723;51.194;5.112;2022-09-27T04:36:14;23.10;84.20
49829;DHT22;35723;51.194;5.112;2022-09-27T04:38:54;23.10;84.10
49829;DHT22;35723;51.194;5.112;2022-09-27T04:41:21;23.10;84.10
49829;DHT22;35723;51.194;5.112;2022-09-27T04:43:49;23.10;84.10
49829;DHT22;35723;51.194;5.112;2022-09-27T04:46:15;23.00;84.10
49829;DHT22;35723;51.194;5.112;2022-09-27T04:48:40;23.10;84.10
49829;DHT22;35723;51.194;5.112;2022-09-27T04:51:06;23.00;84.00
49829;DHT22;35723;51.194;5.112;2022-09-27T04:53:33;23.00;83.90
49829;DHT22;35723;51.194;5.112;2022-09-27T04:55:59;23.00;83.90
49829;DHT22;35723;51.194;5.112;2022-09-27T04:58:31;23.00;83.90
49829;DHT22;35723;51.194;5.112;2022-09-27T05:00:59;23.00;83.80
49829;DHT22;35723;51.194;5.112;2022-09-27T05:03:26;23.00;83.90
49829;DHT22;35723;51.194;5.112;2022-09-27T05:05:52;23.00;83.80
49829;DHT22;35723;51.194;5.112;2022-09-27T05:08:18;23.00;83.70
49829;DHT22;35723;51.194;5.112;2022-09-27T05:10:45;23.00;83.80
49829;DHT22;35723;51.194;5.112;2022-09-27T05:13:12;23.00;83.70
49829;DHT22;35723;51.194;5.112;2022-09-27T05:15:38;23.00;83.70
49829;DHT22;35723;51.194;5.112;2022-09-27T05:18:04;23.00;83.70
49829;DHT22;35723;51.194;5.112;2022-09-27T05:20:31;23.00;83.70
49829;DHT22;35723;51.194;5.112;2022-09-27T05:22:57;23.10;83.80
49829;DHT22;35723;51.194;5.112;2022-09-27T05:25:23;23.00;83.70
49829;DHT22;35723;51.194;5.112;2022-09-27T05:27:49;23.00;83.70
49829;DHT22;35723;51.194;5.112;2022-09-27T05:30:15;23.00;83.70
49829;DHT22;35723;51.194;5.112;2022-09-27T05:32:44;23.00;83.80
49829;DHT22;35723;51.194;5.112;2022-09-27T05:35:12;23.00;83.90
49829;DHT22;35723;51.194;5.112;2022-09-27T05:37:39;23.00;83.90
49829;DHT22;35723;51.194;5.112;2022-09-27T05:40:06;23.00;83.90
49829;DHT22;35723;51.194;5.112;2022-09-27T05:42:31;23.00;83.90
49829;DHT22;35723;51.194;5.112;2022-09-27T05:44:59;23.00;83.90
49829;DHT22;35723;51.194;5.112;2022-09-27T05:47:24;23.00;83.90
49829;DHT22;35723;51.194;5.112;2022-09-27T05:49:50;23.00;83.90
49829;DHT22;35723;51.194;5.112;2022-09-27T05:52:16;23.00;84.00
49829;DHT22;35723;51.194;5.112;2022-09-27T05:54:42;23.00;84.00
49829;DHT22;35723;51.194;5.112;2022-09-27T05:57:08;23.00;84.00
49829;DHT22;35723;51.194;5.112;2022-09-27T05:59:33;23.00;84.00
49829;DHT22;35723;51.194;5.112;2022-09-27T06:01:59;23.00;83.90
49829;DHT22;35723;51.194;5.112;2022-09-27T06:04:26;23.00;84.70
49829;DHT22;35723;51.194;5.112;2022-09-27T06:06:51;23.00;83.90
49829;DHT22;35723;51.194;5.112;2022-09-27T06:09:17;23.00;83.90
49829;DHT22;35723;51.194;5.112;2022-09-27T06:11:43;22.90;83.90
49829;DHT22;35723;51.194;5.112;2022-09-27T06:14:13;23.00;83.90
49829;DHT22;35723;51.194;5.112;2022-09-27T06:16:38;22.90;83.90
49829;DHT22;35723;51.194;5.112;2022-09-27T06:19:04;22.90;84.10
49829;DHT22;35723;51.194;5.112;2022-09-27T06:21:30;22.90;83.90
49829;DHT22;35723;51.194;5.112;2022-09-27T06:23:57;23.00;83.90
49829;DHT22;35723;51.194;5.112;2022-09-27T06:26:24;22.90;84.60
49829;DHT22;35723;51.194;5.112;2022-09-27T06:28:54;22.90;83.90
49829;DHT22;35723;51.194;5.112;2022-09-27T06:31:20;23.00;84.00
49829;DHT22;35723;51.194;5.112;2022-09-27T06:33:47;23.00;84.00
49829;DHT22;35723;51.194;5.112;2022-09-27T06:36:13;23.00;84.00
49829;DHT22;35723;51.194;5.112;2022-09-27T06:38:39;23.00;84.00
49829;DHT22;35723;51.194;5.112;2022-09-27T06:41:05;22.90;84.00
49829;DHT22;35723;51.194;5.112;2022-09-27T06:43:31;23.00;84.10
49829;DHT22;35723;51.194;5.112;2022-09-27T06:45:59;22.90;84.00
49829;DHT22;35723;51.194;5.112;2022-09-27T06:48:32;22.90;84.00
49829;DHT22;35723;51.194;5.112;2022-09-27T06:50:58;23.00;84.10
49829;DHT22;35723;51.194;5.112;2022-09-27T06:53:24;22.90;84.10
49829;DHT22;35723;51.194;5.112;2022-09-27T06:55:50;22.90;84.10
49829;DHT22;35723;51.194;5.112;2022-09-27T06:58:17;23.00;84.10
49829;DHT22;35723;51.194;5.112;2022-09-27T07:01:02;22.90;84.10
49829;DHT22;35723;51.194;5.112;2022-09-27T07:03:28;23.00;84.20
49829;DHT22;35723;51.194;5.112;2022-09-27T07:06:01;23.00;84.20
49829;DHT22;35723;51.194;5.112;2022-09-27T07:08:28;23.00;84.10
49829;DHT22;35723;51.194;5.112;2022-09-27T07:11:14;23.00;84.20
49829;DHT22;35723;51.194;5.112;2022-09-27T07:13:40;23.00;84.10
49829;DHT22;35723;51.194;5.112;2022-09-27T07:16:10;22.90;84.20
49829;DHT22;35723;51.194;5.112;2022-09-27T07:18:37;22.90;84.20
49829;DHT22;35723;51.194;5.112;2022-09-27T07:21:03;22.90;84.20
49829;DHT22;35723;51.194;5.112;2022-09-27T07:23:29;22.90;84.30
49829;DHT22;35723;51.194;5.112;2022-09-27T07:25:55;22.90;84.30
49829;DHT22;35723;51.194;5.112;2022-09-27T07:28:21;23.00;84.40
49829;DHT22;35723;51.194;5.112;2022-09-27T07:30:46;23.00;84.50
49829;DHT22;35723;51.194;5.112;2022-09-27T07:33:12;22.90;84.30
49829;DHT22;35723;51.194;5.112;2022-09-27T07:35:38;22.90;84.40
49829;DHT22;35723;51.194;5.112;2022-09-27T07:38:05;23.00;84.50
49829;DHT22;35723;51.194;5.112;2022-09-27T07:40:35;23.00;84.40
49829;DHT22;35723;51.194;5.112;2022-09-27T07:43:01;23.00;84.40
49829;DHT22;35723;51.194;5.112;2022-09-27T07:45:27;23.00;84.40
49829;DHT22;35723;51.194;5.112;2022-09-27T07:47:53;23.00;84.30
49829;DHT22;35723;51.194;5.112;2022-09-27T07:50:19;23.00;84.30
49829;DHT22;35723;51.194;5.112;2022-09-27T07:52:47;23.00;84.30
49829;DHT22;35723;51.194;5.112;2022-09-27T07:55:14;23.00;84.30
49829;DHT22;35723;51.194;5.112;2022-09-27T07:57:40;23.00;84.40
49829;DHT22;35723;51.194;5.112;2022-09-27T08:00:08;23.00;84.50
49829;DHT22;35723;51.194;5.112;2022-09-27T08:02:35;23.00;84.40
49829;DHT22;35723;51.194;5.112;2022-09-27T08:05:02;23.00;84.40
49829;DHT22;35723;51.194;5.112;2022-09-27T08:07:28;23.00;84.30
49829;DHT22;35723;51.194;5.112;2022-09-27T08:09:54;23.00;84.40
49829;DHT22;35723;51.194;5.112;2022-09-27T08:12:20;23.00;84.40
49829;DHT22;35723;51.194;5.112;2022-09-27T08:14:50;23.00;84.30
49829;DHT22;35723;51.194;5.112;2022-09-27T08:17:17;23.00;84.30
49829;DHT22;35723;51.194;5.112;2022-09-27T08:19:43;23.00;84.50
49829;DHT22;35723;51.194;5.112;2022-09-27T08:22:10;23.00;84.40
49829;DHT22;35723;51.194;5.112;2022-09-27T08:24:37;23.00;84.40
49829;DHT22;35723;51.194;5.112;2022-09-27T08:27:02;23.00;84.30
49829;DHT22;35723;51.194;5.112;2022-09-27T08:29:30;23.00;84.40
49829;DHT22;35723;51.194;5.112;2022-09-27T08:31:55;23.00;84.50
49829;DHT22;35723;51.194;5.112;2022-09-27T08:34:22;23.00;84.60
49829;DHT22;35723;51.194;5.112;2022-09-27T08:36:48;23.00;84.50
49829;DHT22;35723;51.194;5.112;2022-09-27T08:39:14;23.00;84.50
49829;DHT22;35723;51.194;5.112;2022-09-27T08:42:02;23.00;84.50
49829;DHT22;35723;51.194;5.112;2022-09-27T08:49:52;23.00;84.50
49829;DHT22;35723;51.194;5.112;2022-09-27T08:52:25;23.00;84.60
49829;DHT22;35723;51.194;5.112;2022-09-27T08:54:54;23.00;84.70
49829;DHT22;35723;51.194;5.112;2022-09-27T08:57:23;23.00;84.70
49829;DHT22;35723;51.194;5.112;2022-09-27T09:00:00;23.00;84.80
49829;DHT22;35723;51.194;5.112;2022-09-27T09:02:26;23.00;84.80
49829;DHT22;35723;51.194;5.112;2022-09-27T09:04:55;23.00;85.00
49829;DHT22;35723;51.194;5.112;2022-09-27T09:10:32;23.10;85.80
49829;DHT22;35723;51.194;5.112;2022-09-27T09:13:29;22.80;85.30
49829;DHT22;35723;51.194;5.112;2022-09-27T09:19:37;22.90;86.50
49829;DHT22;35723;51.194;5.112;2022-09-27T09:22:25;22.90;85.70
49829;DHT22;35723;51.194;5.112;2022-09-27T09:25:10;22.90;85.80
49829;DHT22;35723;51.194;5.112;2022-09-27T09:33:21;23.00;86.10
49829;DHT22;35723;51.194;5.112;2022-09-27T09:35:54;23.00;86.10
49829;DHT22;35723;51.194;5.112;2022-09-27T09:38:37;23.00;86.10
49829;DHT22;35723;51.194;5.112;2022-09-27T09:41:14;23.00;86.20
49829;DHT22;35723;51.194;5.112;2022-09-27T09:43:49;23.00;86.10
49829;DHT22;35723;51.194;5.112;2022-09-27T09:46:34;23.00;86.30
49829;DHT22;35723;51.194;5.112;2022-09-27T09:49:15;23.00;86.20
49829;DHT22;35723;51.194;5.112;2022-09-27T09:51:48;23.00;86.20
49829;DHT22;35723;51.194;5.112;2022-09-27T09:54:22;23.00;86.20
49829;DHT22;35723;51.194;5.112;2022-09-27T09:57:02;23.10;86.10
49829;DHT22;35723;51.194;5.112;2022-09-27T09:59:37;23.00;86.00
49829;DHT22;35723;51.194;5.112;2022-09-27T10:02:23;23.00;86.00
49829;DHT22;35723;51.194;5.112;2022-09-27T10:04:50;23.00;85.90
49829;DHT22;35723;51.194;5.112;2022-09-27T10:07:20;23.00;86.00
49829;DHT22;35723;51.194;5.112;2022-09-27T10:09:48;23.00;86.00
49829;DHT22;35723;51.194;5.112;2022-09-27T10:12:14;23.00;85.90
49829;DHT22;35723;51.194;5.112;2022-09-27T10:14:41;23.00;85.90
49829;DHT22;35723;51.194;5.112;2022-09-27T10:17:12;23.10;85.90
49829;DHT22;35723;51.194;5.112;2022-09-27T10:19:40;23.00;85.80
49829;DHT22;35723;51.194;5.112;2022-09-27T10:22:27;23.10;85.80
49829;DHT22;35723;51.194;5.112;2022-09-27T10:24:58;23.00;85.60
49829;DHT22;35723;51.194;5.112;2022-09-27T10:27:27;23.00;85.70
49829;DHT22;35723;51.194;5.112;2022-09-27T10:29:59;23.00;85.70
49829;DHT22;35723;51.194;5.112;2022-09-27T10:32:31;23.00;85.60
49829;DHT22;35723;51.194;5.112;2022-09-27T10:35:20;23.00;85.50
49829;DHT22;35723;51.194;5.112;2022-09-27T10:37:46;23.00;85.20
49829;DHT22;35723;51.194;5.112;2022-09-27T10:40:28;23.00;85.30
49829;DHT22;35723;51.194;5.112;2022-09-27T10:42:54;23.10;85.30
49829;DHT22;35723;51.194;5.112;2022-09-27T10:45:29;23.00;85.20
49829;DHT22;35723;51.194;5.112;2022-09-27T10:47:56;23.10;85.10
49829;DHT22;35723;51.194;5.112;2022-09-27T10:50:28;23.10;85.10
49829;DHT22;35723;51.194;5.112;2022-09-27T10:53:14;23.10;85.10
49829;DHT22;35723;51.194;5.112;2022-09-27T10:55:41;23.10;85.00
49829;DHT22;35723;51.194;5.112;2022-09-27T10:58:19;23.10;85.10
49829;DHT22;35723;51.194;5.112;2022-09-27T11:01:14;23.10;85.00
49829;DHT22;35723;51.194;5.112;2022-09-27T11:03:55;23.10;84.90
49829;DHT22;35723;51.194;5.112;2022-09-27T11:08:49;23.10;85.00
49829;DHT22;35723;51.194;5.112;2022-09-27T11:11:24;23.10;85.00
49829;DHT22;35723;51.194;5.112;2022-09-27T11:14:04;23.10;84.90
49829;DHT22;35723;51.194;5.112;2022-09-27T11:39:01;23.10;84.80
49829;DHT22;35723;51.194;5.112;2022-09-27T11:46:38;23.10;84.80
49829;DHT22;35723;51.194;5.112;2022-09-27T11:54:33;23.10;84.60
49829;DHT22;35723;51.194;5.112;2022-09-27T11:57:47;23.10;84.70
49829;DHT22;35723;51.194;5.112;2022-09-27T12:00:22;23.10;84.60
49829;DHT22;35723;51.194;5.112;2022-09-27T12:11:43;23.10;84.70
49829;DHT22;35723;51.194;5.112;2022-09-27T12:13:54;23.10;84.80
49829;DHT22;35723;51.194;5.112;2022-09-27T12:16:22;23.10;84.70
49829;DHT22;35723;51.194;5.112;2022-09-27T12:18:51;23.10;84.80
49829;DHT22;35723;51.194;5.112;2022-09-27T12:21:18;23.10;84.80
49829;DHT22;35723;51.194;5.112;2022-09-27T12:23:57;23.10;84.80
49829;DHT22;35723;51.194;5.112;2022-09-27T12:26:42;23.10;84.70
49829;DHT22;35723;51.194;5.112;2022-09-27T12:29:28;23.10;84.70
49829;DHT22;35723;51.194;5.112;2022-09-27T12:34:50;23.10;84.90
49829;DHT22;35723;51.194;5.112;2022-09-27T12:37:20;23.10;84.80
49829;DHT22;35723;51.194;5.112;2022-09-27T12:42:37;23.10;84.80
49829;DHT22;35723;51.194;5.112;2022-09-27T12:45:09;23.10;84.80
49829;DHT22;35723;51.194;5.112;2022-09-27T12:48:18;23.10;84.90
49829;DHT22;35723;51.194;5.112;2022-09-27T12:50:54;23.10;84.80
49829;DHT22;35723;51.194;5.112;2022-09-27T12:53:30;23.00;84.90
49829;DHT22;35723;51.194;5.112;2022-09-27T12:56:55;23.10;85.10
49829;DHT22;35723;51.194;5.112;2022-09-27T13:02:46;23.10;85.00
49829;DHT22;35723;51.194;5.112;2022-09-27T13:12:56;23.10;84.70
49829;DHT22;35723;51.194;5.112;2022-09-27T13:15:31;23.10;84.60
49829;DHT22;35723;51.194;5.112;2022-09-27T13:17:58;23.10;84.60
49829;DHT22;35723;51.194;5.112;2022-09-27T13:23:02;23.10;84.40
49829;DHT22;35723;51.194;5.112;2022-09-27T13:28:31;23.10;84.20
49829;DHT22;35723;51.194;5.112;2022-09-27T13:30:57;23.20;84.30
49829;DHT22;35723;51.194;5.112;2022-09-27T13:47:02;23.10;84.00
49829;DHT22;35723;51.194;5.112;2022-09-27T13:49:37;23.10;84.00
49829;DHT22;35723;51.194;5.112;2022-09-27T13:52:54;23.10;83.90
49829;DHT22;35723;51.194;5.112;2022-09-27T13:55:45;23.10;83.80
49829;DHT22;35723;51.194;5.112;2022-09-27T13:58:45;23.10;83.80
49829;DHT22;35723;51.194;5.112;2022-09-27T14:03:44;23.10;83.80
49829;DHT22;35723;51.194;5.112;2022-09-27T14:06:14;23.10;83.80
49829;DHT22;35723;51.194;5.112;2022-09-27T14:08:52;23.10;83.70
49829;DHT22;35723;51.194;5.112;2022-09-27T14:11:32;23.10;83.60
49829;DHT22;35723;51.194;5.112;2022-09-27T14:14:00;23.10;83.60
49829;DHT22;35723;51.194;5.112;2022-09-27T14:16:32;23.10;83.60
49829;DHT22;35723;51.194;5.112;2022-09-27T14:18:58;23.10;83.60
49829;DHT22;35723;51.194;5.112;2022-09-27T14:21:35;23.10;83.60
49829;DHT22;35723;51.194;5.112;2022-09-27T14:26:46;23.10;83.60
49829;DHT22;35723;51.194;5.112;2022-09-27T14:29:20;23.10;83.70
49829;DHT22;35723;51.194;5.112;2022-09-27T14:31:46;23.10;83.60
49829;DHT22;35723;51.194;5.112;2022-09-27T14:34:15;23.10;83.70
49829;DHT22;35723;51.194;5.112;2022-09-27T14:36:43;23.10;83.70
49829;DHT22;35723;51.194;5.112;2022-09-27T14:39:30;23.10;83.70
49829;DHT22;35723;51.194;5.112;2022-09-27T14:41:59;23.10;83.70
49829;DHT22;35723;51.194;5.112;2022-09-27T14:44:27;23.10;83.70
49829;DHT22;35723;51.194;5.112;2022-09-27T14:47:19;23.10;83.70
49829;DHT22;35723;51.194;5.112;2022-09-27T14:49:56;23.10;83.60
49829;DHT22;35723;51.194;5.112;2022-09-27T14:52:33;23.10;83.80
49829;DHT22;35723;51.194;5.112;2022-09-27T14:55:04;23.00;83.90
49829;DHT22;35723;51.194;5.112;2022-09-27T14:57:31;23.00;84.00
49829;DHT22;35723;51.194;5.112;2022-09-27T15:02:58;22.90;83.90
49829;DHT22;35723;51.194;5.112;2022-09-27T15:05:27;22.90;84.30
49829;DHT22;35723;51.194;5.112;2022-09-27T15:07:54;22.90;84.70
49829;DHT22;35723;51.194;5.112;2022-09-27T15:10:26;22.90;84.50
49829;DHT22;35723;51.194;5.112;2022-09-27T15:12:54;23.00;84.50
49829;DHT22;35723;51.194;5.112;2022-09-27T15:15:26;23.00;84.30
49829;DHT22;35723;51.194;5.112;2022-09-27T15:17:56;23.00;84.20
49829;DHT22;35723;51.194;5.112;2022-09-27T15:20:29;23.00;84.20
49829;DHT22;35723;51.194;5.112;2022-09-27T15:22:57;23.00;84.20
49829;DHT22;35723;51.194;5.112;2022-09-27T15:25:40;23.00;84.20
49829;DHT22;35723;51.194;5.112;2022-09-27T15:30:39;23.00;84.50
49829;DHT22;35723;51.194;5.112;2022-09-27T15:33:14;23.10;85.20
49829;DHT22;35723;51.194;5.112;2022-09-27T15:35:55;23.00;85.00
49829;DHT22;35723;51.194;5.112;2022-09-27T15:38:30;23.00;85.10
49829;DHT22;35723;51.194;5.112;2022-09-27T15:41:01;23.10;84.50
49829;DHT22;35723;51.194;5.112;2022-09-27T15:43:31;23.10;84.40
49829;DHT22;35723;51.194;5.112;2022-09-27T15:48:39;23.10;84.60
49829;DHT22;35723;51.194;5.112;2022-09-27T15:51:36;23.00;85.80
49829;DHT22;35723;51.194;5.112;2022-09-27T15:54:02;23.10;85.70
49829;DHT22;35723;51.194;5.112;2022-09-27T15:56:28;23.00;84.50
49829;DHT22;35723;51.194;5.112;2022-09-27T15:58:54;23.10;84.90
49829;DHT22;35723;51.194;5.112;2022-09-27T16:01:19;22.50;84.70
49829;DHT22;35723;51.194;5.112;2022-09-27T16:03:45;22.40;85.70
49829;DHT22;35723;51.194;5.112;2022-09-27T16:06:12;22.50;86.30
49829;DHT22;35723;51.194;5.112;2022-09-27T16:08:38;22.60;86.30
49829;DHT22;35723;51.194;5.112;2022-09-27T16:11:04;22.70;86.40
49829;DHT22;35723;51.194;5.112;2022-09-27T16:13:30;22.70;86.50
49829;DHT22;35723;51.194;5.112;2022-09-27T16:15:56;22.80;86.50
49829;DHT22;35723;51.194;5.112;2022-09-27T16:18:22;22.80;86.70
49829;DHT22;35723;51.194;5.112;2022-09-27T16:20:47;22.80;86.40
49829;DHT22;35723;51.194;5.112;2022-09-27T16:23:13;22.80;86.10
49829;DHT22;35723;51.194;5.112;2022-09-27T16:25:38;22.80;85.80
49829;DHT22;35723;51.194;5.112;2022-09-27T16:28:05;22.80;86.00
49829;DHT22;35723;51.194;5.112;2022-09-27T16:30:31;22.90;85.80
49829;DHT22;35723;51.194;5.112;2022-09-27T16:32:57;22.90;85.70
49829;DHT22;35723;51.194;5.112;2022-09-27T16:35:24;22.90;85.50
49829;DHT22;35723;51.194;5.112;2022-09-27T16:37:50;22.90;85.60
49829;DHT22;35723;51.194;5.112;2022-09-27T16:40:17;22.90;85.40
49829;DHT22;35723;51.194;5.112;2022-09-27T16:42:46;22.90;85.40
49829;DHT22;35723;51.194;5.112;2022-09-27T16:45:12;22.90;85.40
49829;DHT22;35723;51.194;5.112;2022-09-27T16:47:41;22.90;85.40
49829;DHT22;35723;51.194;5.112;2022-09-27T16:50:08;22.90;85.30
49829;DHT22;35723;51.194;5.112;2022-09-27T16:52:53;22.90;85.30
49829;DHT22;35723;51.194;5.112;2022-09-27T16:55:19;22.90;85.40
49829;DHT22;35723;51.194;5.112;2022-09-27T16:57:46;22.90;85.30
49829;DHT22;35723;51.194;5.112;2022-09-27T17:00:12;22.90;85.20
49829;DHT22;35723;51.194;5.112;2022-09-27T17:02:38;22.90;85.20
49829;DHT22;35723;51.194;5.112;2022-09-27T17:05:05;22.90;85.10
49829;DHT22;35723;51.194;5.112;2022-09-27T17:07:30;22.90;85.00
49829;DHT22;35723;51.194;5.112;2022-09-27T17:09:56;22.90;84.90
49829;DHT22;35723;51.194;5.112;2022-09-27T17:12:22;22.90;84.90
49829;DHT22;35723;51.194;5.112;2022-09-27T17:14:49;22.90;84.80
49829;DHT22;35723;51.194;5.112;2022-09-27T17:17:14;22.90;84.80
49829;DHT22;35723;51.194;5.112;2022-09-27T17:19:40;22.90;84.70
49829;DHT22;35723;51.194;5.112;2022-09-27T17:22:06;22.90;84.60
49829;DHT22;35723;51.194;5.112;2022-09-27T17:24:32;22.90;84.60
49829;DHT22;35723;51.194;5.112;2022-09-27T17:26:57;22.90;84.60
49829;DHT22;35723;51.194;5.112;2022-09-27T17:29:23;22.90;84.60
49829;DHT22;35723;51.194;5.112;2022-09-27T17:31:49;22.90;84.60
49829;DHT22;35723;51.194;5.112;2022-09-27T17:34:15;22.90;84.50
49829;DHT22;35723;51.194;5.112;2022-09-27T17:36:43;22.90;84.50
49829;DHT22;35723;51.194;5.112;2022-09-27T17:39:18;22.90;84.50
49829;DHT22;35723;51.194;5.112;2022-09-27T17:41:48;22.90;84.50
49829;DHT22;35723;51.194;5.112;2022-09-27T17:44:14;22.90;84.50
49829;DHT22;35723;51.194;5.112;2022-09-27T17:46:41;22.90;84.50
49829;DHT22;35723;51.194;5.112;2022-09-27T17:49:08;22.90;84.50
49829;DHT22;35723;51.194;5.112;2022-09-27T17:51:52;22.90;84.40
49829;DHT22;35723;51.194;5.112;2022-09-27T17:54:20;22.90;84.40
49829;DHT22;35723;51.194;5.112;2022-09-27T17:56:47;22.90;84.40
49829;DHT22;35723;51.194;5.112;2022-09-27T17:59:15;22.90;84.40
49829;DHT22;35723;51.194;5.112;2022-09-27T18:01:42;22.90;84.40
49829;DHT22;35723;51.194;5.112;2022-09-27T18:04:10;22.90;84.40
49829;DHT22;35723;51.194;5.112;2022-09-27T18:06:38;22.80;85.00
49829;DHT22;35723;51.194;5.112;2022-09-27T18:09:05;22.90;84.30
49829;DHT22;35723;51.194;5.112;2022-09-27T18:11:33;22.20;84.50